sensor_id;sensor_type;location;lat;lon;timestamp;P1;durP1;ratioP1;P2;durP2;ratioP2
75898;SDS011;64576;50.460;4.866;2023-05-10T00:02:03;32.67;;;11.85;;
75898;SDS011;64576;50.460;4.866;2023-05-10T00:04:29;26.65;;;9.82;;
75898;SDS011;64576;50.460;4.866;2023-05-10T00:06:54;28.63;;;10.73;;
75898;SDS011;64576;50.460;4.866;2023-05-10T00:09:19;23.38;;;9.05;;
75898;SDS011;64576;50.460;4.866;2023-05-10T00:11:45;28.52;;;9.75;;
75898;SDS011;64576;50.460;4.866;2023-05-10T00:14:11;21.63;;;7.20;;
75898;SDS011;64576;50.460;4.866;2023-05-10T00:16:36;30.50;;;9.55;;
75898;SDS011;64576;50.460;4.866;2023-05-10T00:19:01;20.75;;;8.57;;
75898;SDS011;64576;50.460;4.866;2023-05-10T00:21:27;22.80;;;9.05;;
75898;SDS011;64576;50.460;4.866;2023-05-10T00:23:53;22.40;;;8.57;;
75898;SDS011;64576;50.460;4.866;2023-05-10T00:26:18;24.85;;;9.25;;
75898;SDS011;64576;50.460;4.866;2023-05-10T00:28:44;23.17;;;9.10;;
75898;SDS011;64576;50.460;4.866;2023-05-10T00:31:10;23.58;;;8.13;;
75898;SDS011;64576;50.460;4.866;2023-05-10T00:33:35;25.60;;;9.52;;
75898;SDS011;64576;50.460;4.866;2023-05-10T00:36:01;18.77;;;7.82;;
75898;SDS011;64576;50.460;4.866;2023-05-10T00:38:26;24.33;;;8.68;;
75898;SDS011;64576;50.460;4.866;2023-05-10T00:40:51;23.30;;;8.13;;
75898;SDS011;64576;50.460;4.866;2023-05-10T00:43:17;25.25;;;9.15;;
75898;SDS011;64576;50.460;4.866;2023-05-10T00:45:42;20.15;;;8.50;;
75898;SDS011;64576;50.460;4.866;2023-05-10T00:48:08;23.88;;;8.43;;
75898;SDS011;64576;50.460;4.866;2023-05-10T00:50:34;25.58;;;8.20;;
75898;SDS011;64576;50.460;4.866;2023-05-10T00:52:59;31.70;;;9.85;;
75898;SDS011;64576;50.460;4.866;2023-05-10T00:55:26;23.92;;;9.80;;
75898;SDS011;64576;50.460;4.866;2023-05-10T00:57:52;24.25;;;9.73;;
75898;SDS011;64576;50.460;4.866;2023-05-10T01:00:18;26.88;;;9.88;;
75898;SDS011;64576;50.460;4.866;2023-05-10T01:02:44;24.33;;;9.65;;
75898;SDS011;64576;50.460;4.866;2023-05-10T01:05:11;23.23;;;9.20;;
75898;SDS011;64576;50.460;4.866;2023-05-10T01:07:37;20.92;;;8.05;;
75898;SDS011;64576;50.460;4.866;2023-05-10T01:10:02;24.80;;;8.80;;
75898;SDS011;64576;50.460;4.866;2023-05-10T01:12:28;26.13;;;8.68;;
75898;SDS011;64576;50.460;4.866;2023-05-10T01:14:54;21.08;;;9.57;;
75898;SDS011;64576;50.460;4.866;2023-05-10T01:17:20;21.90;;;8.43;;
75898;SDS011;64576;50.460;4.866;2023-05-10T01:19:47;27.25;;;10.25;;
75898;SDS011;64576;50.460;4.866;2023-05-10T01:33:19;21.08;;;8.23;;
75898;SDS011;64576;50.460;4.866;2023-05-10T01:38:53;22.65;;;7.97;;
75898;SDS011;64576;50.460;4.866;2023-05-10T01:41:36;22.55;;;8.05;;
75898;SDS011;64576;50.460;4.866;2023-05-10T01:44:24;24.52;;;8.05;;
75898;SDS011;64576;50.460;4.866;2023-05-10T01:46:53;22.83;;;8.88;;
75898;SDS011;64576;50.460;4.866;2023-05-10T01:49:27;19.90;;;8.05;;
75898;SDS011;64576;50.460;4.866;2023-05-10T01:52:00;25.33;;;9.07;;
75898;SDS011;64576;50.460;4.866;2023-05-10T01:54:31;31.73;;;9.02;;
75898;SDS011;64576;50.460;4.866;2023-05-10T01:57:02;27.38;;;9.00;;
75898;SDS011;64576;50.460;4.866;2023-05-10T01:59:32;21.00;;;7.93;;
75898;SDS011;64576;50.460;4.866;2023-05-10T02:02:05;20.58;;;8.50;;
75898;SDS011;64576;50.460;4.866;2023-05-10T02:04:31;24.80;;;8.68;;
75898;SDS011;64576;50.460;4.866;2023-05-10T02:07:00;23.02;;;8.20;;
75898;SDS011;64576;50.460;4.866;2023-05-10T02:09:26;18.88;;;8.10;;
75898;SDS011;64576;50.460;4.866;2023-05-10T02:11:52;21.90;;;8.73;;
75898;SDS011;64576;50.460;4.866;2023-05-10T02:14:19;27.08;;;10.48;;
75898;SDS011;64576;50.460;4.866;2023-05-10T02:16:46;24.40;;;8.15;;
75898;SDS011;64576;50.460;4.866;2023-05-10T02:19:13;20.30;;;7.13;;
75898;SDS011;64576;50.460;4.866;2023-05-10T02:21:39;22.45;;;8.95;;
75898;SDS011;64576;50.460;4.866;2023-05-10T02:24:06;21.13;;;8.52;;
75898;SDS011;64576;50.460;4.866;2023-05-10T02:26:33;29.52;;;9.65;;
75898;SDS011;64576;50.460;4.866;2023-05-10T02:29:01;23.05;;;8.45;;
75898;SDS011;64576;50.460;4.866;2023-05-10T02:31:29;32.45;;;9.88;;
75898;SDS011;64576;50.460;4.866;2023-05-10T02:33:57;25.88;;;12.35;;
75898;SDS011;64576;50.460;4.866;2023-05-10T02:36:23;31.08;;;9.95;;
75898;SDS011;64576;50.460;4.866;2023-05-10T02:38:52;26.48;;;9.70;;
75898;SDS011;64576;50.460;4.866;2023-05-10T02:41:18;32.80;;;9.90;;
75898;SDS011;64576;50.460;4.866;2023-05-10T02:43:49;32.92;;;11.68;;
75898;SDS011;64576;50.460;4.866;2023-05-10T02:46:15;34.45;;;11.88;;
75898;SDS011;64576;50.460;4.866;2023-05-10T02:48:41;32.90;;;12.25;;
75898;SDS011;64576;50.460;4.866;2023-05-10T02:51:07;29.73;;;11.55;;
75898;SDS011;64576;50.460;4.866;2023-05-10T02:53:34;31.88;;;12.35;;
75898;SDS011;64576;50.460;4.866;2023-05-10T02:56:15;32.58;;;10.27;;
75898;SDS011;64576;50.460;4.866;2023-05-10T02:58:48;33.22;;;10.82;;
75898;SDS011;64576;50.460;4.866;2023-05-10T03:01:13;34.28;;;12.10;;
75898;SDS011;64576;50.460;4.866;2023-05-10T03:03:39;33.00;;;11.32;;
75898;SDS011;64576;50.460;4.866;2023-05-10T03:06:04;35.90;;;12.15;;
75898;SDS011;64576;50.460;4.866;2023-05-10T03:08:30;40.17;;;12.85;;
75898;SDS011;64576;50.460;4.866;2023-05-10T03:13:43;36.92;;;11.45;;
75898;SDS011;64576;50.460;4.866;2023-05-10T03:16:21;36.58;;;13.05;;
75898;SDS011;64576;50.460;4.866;2023-05-10T03:19:11;34.53;;;12.75;;
75898;SDS011;64576;50.460;4.866;2023-05-10T03:21:58;35.33;;;13.52;;
75898;SDS011;64576;50.460;4.866;2023-05-10T03:24:27;33.88;;;13.70;;
75898;SDS011;64576;50.460;4.866;2023-05-10T03:26:54;27.60;;;10.25;;
75898;SDS011;64576;50.460;4.866;2023-05-10T03:29:21;33.53;;;12.90;;
75898;SDS011;64576;50.460;4.866;2023-05-10T03:31:49;29.48;;;12.63;;
75898;SDS011;64576;50.460;4.866;2023-05-10T03:34:15;32.05;;;12.80;;
75898;SDS011;64576;50.460;4.866;2023-05-10T03:36:42;28.27;;;10.43;;
75898;SDS011;64576;50.460;4.866;2023-05-10T03:39:07;30.45;;;10.95;;
75898;SDS011;64576;50.460;4.866;2023-05-10T03:41:33;24.75;;;9.63;;
75898;SDS011;64576;50.460;4.866;2023-05-10T03:43:59;31.67;;;10.65;;
75898;SDS011;64576;50.460;4.866;2023-05-10T03:46:24;29.95;;;11.20;;
75898;SDS011;64576;50.460;4.866;2023-05-10T03:48:49;28.27;;;12.18;;
75898;SDS011;64576;50.460;4.866;2023-05-10T03:51:15;31.88;;;11.57;;
75898;SDS011;64576;50.460;4.866;2023-05-10T03:53:40;31.42;;;11.35;;
75898;SDS011;64576;50.460;4.866;2023-05-10T03:56:06;26.65;;;10.93;;
75898;SDS011;64576;50.460;4.866;2023-05-10T03:58:31;30.52;;;9.70;;
75898;SDS011;64576;50.460;4.866;2023-05-10T04:00:57;34.08;;;12.55;;
75898;SDS011;64576;50.460;4.866;2023-05-10T04:03:22;30.05;;;12.07;;
75898;SDS011;64576;50.460;4.866;2023-05-10T04:05:48;33.42;;;13.65;;
75898;SDS011;64576;50.460;4.866;2023-05-10T04:08:13;34.53;;;14.25;;
75898;SDS011;64576;50.460;4.866;2023-05-10T04:10:41;36.50;;;12.95;;
75898;SDS011;64576;50.460;4.866;2023-05-10T04:13:06;40.83;;;13.80;;
75898;SDS011;64576;50.460;4.866;2023-05-10T04:15:32;36.92;;;14.07;;
75898;SDS011;64576;50.460;4.866;2023-05-10T04:17:57;36.17;;;13.45;;
75898;SDS011;64576;50.460;4.866;2023-05-10T04:20:22;43.33;;;12.95;;
75898;SDS011;64576;50.460;4.866;2023-05-10T04:22:48;37.80;;;13.75;;
75898;SDS011;64576;50.460;4.866;2023-05-10T04:25:13;41.22;;;14.10;;
75898;SDS011;64576;50.460;4.866;2023-05-10T04:27:38;34.83;;;13.93;;
75898;SDS011;64576;50.460;4.866;2023-05-10T04:30:04;37.38;;;13.68;;
75898;SDS011;64576;50.460;4.866;2023-05-10T04:32:30;33.92;;;12.60;;
75898;SDS011;64576;50.460;4.866;2023-05-10T04:34:56;28.65;;;11.15;;
75898;SDS011;64576;50.460;4.866;2023-05-10T04:37:21;29.90;;;12.93;;
75898;SDS011;64576;50.460;4.866;2023-05-10T04:39:47;23.50;;;9.40;;
75898;SDS011;64576;50.460;4.866;2023-05-10T04:42:13;23.23;;;7.43;;
75898;SDS011;64576;50.460;4.866;2023-05-10T04:44:39;20.02;;;6.45;;
75898;SDS011;64576;50.460;4.866;2023-05-10T04:47:05;11.80;;;4.55;;
75898;SDS011;64576;50.460;4.866;2023-05-10T04:49:31;10.82;;;4.82;;
75898;SDS011;64576;50.460;4.866;2023-05-10T04:51:56;12.05;;;4.97;;
75898;SDS011;64576;50.460;4.866;2023-05-10T04:54:21;12.50;;;5.25;;
75898;SDS011;64576;50.460;4.866;2023-05-10T04:56:47;13.38;;;4.82;;
75898;SDS011;64576;50.460;4.866;2023-05-10T04:59:12;11.00;;;3.72;;
75898;SDS011;64576;50.460;4.866;2023-05-10T05:01:37;14.52;;;4.72;;
75898;SDS011;64576;50.460;4.866;2023-05-10T05:04:03;12.80;;;5.60;;
75898;SDS011;64576;50.460;4.866;2023-05-10T05:06:28;10.35;;;4.43;;
75898;SDS011;64576;50.460;4.866;2023-05-10T05:08:54;13.95;;;4.57;;
75898;SDS011;64576;50.460;4.866;2023-05-10T05:11:19;11.65;;;4.13;;
75898;SDS011;64576;50.460;4.866;2023-05-10T05:13:46;11.65;;;4.00;;
75898;SDS011;64576;50.460;4.866;2023-05-10T05:16:11;12.65;;;3.35;;
75898;SDS011;64576;50.460;4.866;2023-05-10T05:18:37;10.43;;;3.85;;
75898;SDS011;64576;50.460;4.866;2023-05-10T05:21:02;12.18;;;3.92;;
75898;SDS011;64576;50.460;4.866;2023-05-10T05:23:27;11.90;;;5.28;;
75898;SDS011;64576;50.460;4.866;2023-05-10T05:25:53;11.98;;;4.65;;
75898;SDS011;64576;50.460;4.866;2023-05-10T05:28:19;14.35;;;3.97;;
75898;SDS011;64576;50.460;4.866;2023-05-10T05:30:47;12.52;;;3.67;;
75898;SDS011;64576;50.460;4.866;2023-05-10T05:33:13;12.57;;;5.63;;
75898;SDS011;64576;50.460;4.866;2023-05-10T05:35:40;24.73;;;4.40;;
75898;SDS011;64576;50.460;4.866;2023-05-10T05:38:06;12.70;;;4.07;;
75898;SDS011;64576;50.460;4.866;2023-05-10T05:40:31;8.80;;;4.05;;
75898;SDS011;64576;50.460;4.866;2023-05-10T05:42:58;11.27;;;4.55;;
75898;SDS011;64576;50.460;4.866;2023-05-10T05:45:23;14.52;;;5.40;;
75898;SDS011;64576;50.460;4.866;2023-05-10T05:47:48;17.88;;;6.28;;
75898;SDS011;64576;50.460;4.866;2023-05-10T05:50:14;15.48;;;5.30;;
75898;SDS011;64576;50.460;4.866;2023-05-10T05:52:39;13.98;;;5.55;;
75898;SDS011;64576;50.460;4.866;2023-05-10T05:55:05;9.73;;;4.72;;
75898;SDS011;64576;50.460;4.866;2023-05-10T05:57:30;10.43;;;5.15;;
75898;SDS011;64576;50.460;4.866;2023-05-10T05:59:56;13.48;;;5.13;;
75898;SDS011;64576;50.460;4.866;2023-05-10T06:02:21;11.05;;;5.97;;
75898;SDS011;64576;50.460;4.866;2023-05-10T06:04:46;11.88;;;4.68;;
75898;SDS011;64576;50.460;4.866;2023-05-10T06:07:12;12.10;;;4.53;;
75898;SDS011;64576;50.460;4.866;2023-05-10T06:09:37;11.77;;;4.75;;
75898;SDS011;64576;50.460;4.866;2023-05-10T06:12:03;10.20;;;4.38;;
75898;SDS011;64576;50.460;4.866;2023-05-10T06:14:28;9.30;;;4.38;;
75898;SDS011;64576;50.460;4.866;2023-05-10T06:16:54;12.48;;;4.55;;
75898;SDS011;64576;50.460;4.866;2023-05-10T06:19:19;10.32;;;3.47;;
75898;SDS011;64576;50.460;4.866;2023-05-10T06:21:45;11.95;;;4.43;;
75898;SDS011;64576;50.460;4.866;2023-05-10T06:24:10;11.32;;;3.97;;
75898;SDS011;64576;50.460;4.866;2023-05-10T06:26:36;8.18;;;3.78;;
75898;SDS011;64576;50.460;4.866;2023-05-10T06:29:01;9.75;;;3.15;;
75898;SDS011;64576;50.460;4.866;2023-05-10T06:31:27;14.00;;;3.55;;
75898;SDS011;64576;50.460;4.866;2023-05-10T06:33:52;10.35;;;3.50;;
75898;SDS011;64576;50.460;4.866;2023-05-10T06:36:18;8.75;;;3.30;;
75898;SDS011;64576;50.460;4.866;2023-05-10T06:38:45;11.52;;;3.67;;
75898;SDS011;64576;50.460;4.866;2023-05-10T06:41:10;11.20;;;2.97;;
75898;SDS011;64576;50.460;4.866;2023-05-10T06:43:35;9.30;;;3.10;;
75898;SDS011;64576;50.460;4.866;2023-05-10T06:46:04;9.80;;;3.13;;
75898;SDS011;64576;50.460;4.866;2023-05-10T06:48:30;13.77;;;3.83;;
75898;SDS011;64576;50.460;4.866;2023-05-10T06:50:55;7.40;;;2.75;;
75898;SDS011;64576;50.460;4.866;2023-05-10T06:53:21;12.05;;;3.58;;
75898;SDS011;64576;50.460;4.866;2023-05-10T06:55:46;11.02;;;3.45;;
75898;SDS011;64576;50.460;4.866;2023-05-10T06:58:13;6.95;;;2.80;;
75898;SDS011;64576;50.460;4.866;2023-05-10T07:00:39;5.82;;;2.78;;
75898;SDS011;64576;50.460;4.866;2023-05-10T07:03:05;9.45;;;2.63;;
75898;SDS011;64576;50.460;4.866;2023-05-10T07:05:31;11.05;;;3.15;;
75898;SDS011;64576;50.460;4.866;2023-05-10T07:07:56;9.50;;;3.35;;
75898;SDS011;64576;50.460;4.866;2023-05-10T07:10:22;7.97;;;3.95;;
75898;SDS011;64576;50.460;4.866;2023-05-10T07:12:47;8.93;;;3.03;;
75898;SDS011;64576;50.460;4.866;2023-05-10T07:15:13;7.57;;;2.95;;
75898;SDS011;64576;50.460;4.866;2023-05-10T07:17:38;6.88;;;3.63;;
75898;SDS011;64576;50.460;4.866;2023-05-10T07:20:04;7.85;;;3.00;;
75898;SDS011;64576;50.460;4.866;2023-05-10T07:22:30;6.85;;;3.22;;
75898;SDS011;64576;50.460;4.866;2023-05-10T07:24:55;9.23;;;2.83;;
75898;SDS011;64576;50.460;4.866;2023-05-10T07:27:21;5.88;;;2.95;;
75898;SDS011;64576;50.460;4.866;2023-05-10T07:29:46;13.05;;;4.93;;
75898;SDS011;64576;50.460;4.866;2023-05-10T07:32:11;8.98;;;4.20;;
75898;SDS011;64576;50.460;4.866;2023-05-10T07:34:37;6.65;;;3.05;;
75898;SDS011;64576;50.460;4.866;2023-05-10T07:37:02;5.38;;;2.97;;
75898;SDS011;64576;50.460;4.866;2023-05-10T07:39:28;7.93;;;3.88;;
75898;SDS011;64576;50.460;4.866;2023-05-10T07:41:54;6.05;;;3.50;;
75898;SDS011;64576;50.460;4.866;2023-05-10T07:44:19;7.82;;;3.17;;
75898;SDS011;64576;50.460;4.866;2023-05-10T07:46:45;7.82;;;3.55;;
75898;SDS011;64576;50.460;4.866;2023-05-10T07:49:11;6.05;;;3.03;;
75898;SDS011;64576;50.460;4.866;2023-05-10T07:51:37;5.70;;;2.70;;
75898;SDS011;64576;50.460;4.866;2023-05-10T07:54:02;8.32;;;3.78;;
75898;SDS011;64576;50.460;4.866;2023-05-10T07:56:28;12.35;;;4.75;;
75898;SDS011;64576;50.460;4.866;2023-05-10T07:58:56;7.95;;;3.42;;
75898;SDS011;64576;50.460;4.866;2023-05-10T08:01:23;7.75;;;3.80;;
75898;SDS011;64576;50.460;4.866;2023-05-10T08:03:48;9.80;;;3.75;;
75898;SDS011;64576;50.460;4.866;2023-05-10T08:06:16;6.35;;;3.13;;
75898;SDS011;64576;50.460;4.866;2023-05-10T08:08:43;7.72;;;3.60;;
75898;SDS011;64576;50.460;4.866;2023-05-10T08:11:10;6.80;;;3.55;;
75898;SDS011;64576;50.460;4.866;2023-05-10T08:13:36;8.98;;;3.47;;
75898;SDS011;64576;50.460;4.866;2023-05-10T08:16:01;6.95;;;3.30;;
75898;SDS011;64576;50.460;4.866;2023-05-10T08:18:27;6.22;;;2.75;;
75898;SDS011;64576;50.460;4.866;2023-05-10T08:20:53;5.47;;;2.75;;
75898;SDS011;64576;50.460;4.866;2023-05-10T08:23:18;9.00;;;2.90;;
75898;SDS011;64576;50.460;4.866;2023-05-10T08:25:44;5.63;;;2.85;;
75898;SDS011;64576;50.460;4.866;2023-05-10T08:28:09;8.32;;;3.03;;
75898;SDS011;64576;50.460;4.866;2023-05-10T08:30:35;5.88;;;3.20;;
75898;SDS011;64576;50.460;4.866;2023-05-10T08:33:01;7.35;;;2.50;;
75898;SDS011;64576;50.460;4.866;2023-05-10T08:35:26;6.82;;;3.58;;
75898;SDS011;64576;50.460;4.866;2023-05-10T08:37:51;7.30;;;2.55;;
75898;SDS011;64576;50.460;4.866;2023-05-10T08:40:17;7.13;;;2.63;;
75898;SDS011;64576;50.460;4.866;2023-05-10T08:42:46;4.95;;;2.42;;
75898;SDS011;64576;50.460;4.866;2023-05-10T08:45:16;6.53;;;2.83;;
75898;SDS011;64576;50.460;4.866;2023-05-10T08:47:43;5.75;;;2.65;;
75898;SDS011;64576;50.460;4.866;2023-05-10T08:50:10;5.47;;;2.38;;
75898;SDS011;64576;50.460;4.866;2023-05-10T08:52:37;8.23;;;2.95;;
75898;SDS011;64576;50.460;4.866;2023-05-10T08:55:05;7.63;;;2.85;;
75898;SDS011;64576;50.460;4.866;2023-05-10T08:57:31;4.20;;;2.30;;
75898;SDS011;64576;50.460;4.866;2023-05-10T08:59:56;5.05;;;2.65;;
75898;SDS011;64576;50.460;4.866;2023-05-10T09:02:23;4.22;;;2.00;;
75898;SDS011;64576;50.460;4.866;2023-05-10T09:04:49;4.63;;;2.35;;
75898;SDS011;64576;50.460;4.866;2023-05-10T09:07:14;5.97;;;2.25;;
75898;SDS011;64576;50.460;4.866;2023-05-10T09:09:40;5.75;;;2.00;;
75898;SDS011;64576;50.460;4.866;2023-05-10T09:12:06;6.75;;;2.00;;
75898;SDS011;64576;50.460;4.866;2023-05-10T09:14:36;4.00;;;2.15;;
75898;SDS011;64576;50.460;4.866;2023-05-10T09:17:02;6.32;;;1.92;;
75898;SDS011;64576;50.460;4.866;2023-05-10T09:19:29;5.30;;;2.20;;
75898;SDS011;64576;50.460;4.866;2023-05-10T09:21:54;4.03;;;1.90;;
75898;SDS011;64576;50.460;4.866;2023-05-10T09:24:20;4.28;;;1.65;;
75898;SDS011;64576;50.460;4.866;2023-05-10T09:26:50;3.65;;;1.67;;
75898;SDS011;64576;50.460;4.866;2023-05-10T09:29:16;4.78;;;1.67;;
75898;SDS011;64576;50.460;4.866;2023-05-10T09:31:46;4.95;;;2.10;;
75898;SDS011;64576;50.460;4.866;2023-05-10T09:34:20;5.55;;;2.00;;
75898;SDS011;64576;50.460;4.866;2023-05-10T09:36:56;6.70;;;2.42;;
75898;SDS011;64576;50.460;4.866;2023-05-10T09:39:33;3.88;;;2.30;;
75898;SDS011;64576;50.460;4.866;2023-05-10T09:42:01;5.72;;;2.33;;
75898;SDS011;64576;50.460;4.866;2023-05-10T09:44:28;5.88;;;2.15;;
75898;SDS011;64576;50.460;4.866;2023-05-10T09:46:54;11.57;;;3.22;;
75898;SDS011;64576;50.460;4.866;2023-05-10T09:49:23;6.25;;;2.50;;
75898;SDS011;64576;50.460;4.866;2023-05-10T09:52:04;7.35;;;2.90;;
75898;SDS011;64576;50.460;4.866;2023-05-10T09:56:57;5.07;;;1.92;;
75898;SDS011;64576;50.460;4.866;2023-05-10T09:59:24;5.18;;;2.55;;
75898;SDS011;64576;50.460;4.866;2023-05-10T10:01:51;5.80;;;2.53;;
75898;SDS011;64576;50.460;4.866;2023-05-10T10:04:17;5.18;;;2.72;;
75898;SDS011;64576;50.460;4.866;2023-05-10T10:06:44;6.63;;;2.60;;
75898;SDS011;64576;50.460;4.866;2023-05-10T10:09:10;7.00;;;3.20;;
75898;SDS011;64576;50.460;4.866;2023-05-10T10:11:36;3.92;;;2.10;;
75898;SDS011;64576;50.460;4.866;2023-05-10T10:14:02;8.98;;;2.53;;
75898;SDS011;64576;50.460;4.866;2023-05-10T10:16:29;5.32;;;2.85;;
75898;SDS011;64576;50.460;4.866;2023-05-10T10:18:55;5.15;;;2.42;;
75898;SDS011;64576;50.460;4.866;2023-05-10T10:21:21;5.53;;;3.00;;
75898;SDS011;64576;50.460;4.866;2023-05-10T10:23:47;6.45;;;3.15;;
75898;SDS011;64576;50.460;4.866;2023-05-10T10:26:13;7.85;;;3.58;;
75898;SDS011;64576;50.460;4.866;2023-05-10T10:31:23;8.07;;;3.65;;
75898;SDS011;64576;50.460;4.866;2023-05-10T10:33:56;5.32;;;2.85;;
75898;SDS011;64576;50.460;4.866;2023-05-10T10:36:25;10.55;;;3.55;;
75898;SDS011;64576;50.460;4.866;2023-05-10T10:38:54;8.82;;;3.58;;
75898;SDS011;64576;50.460;4.866;2023-05-10T10:41:31;6.32;;;3.30;;
75898;SDS011;64576;50.460;4.866;2023-05-10T10:55:13;9.90;;;2.72;;
75898;SDS011;64576;50.460;4.866;2023-05-10T10:57:43;6.85;;;2.28;;
75898;SDS011;64576;50.460;4.866;2023-05-10T11:00:18;4.20;;;2.03;;
75898;SDS011;64576;50.460;4.866;2023-05-10T11:08:10;5.05;;;2.45;;
75898;SDS011;64576;50.460;4.866;2023-05-10T11:10:38;6.88;;;2.53;;
75898;SDS011;64576;50.460;4.866;2023-05-10T11:13:07;7.40;;;2.53;;
75898;SDS011;64576;50.460;4.866;2023-05-10T11:15:38;5.20;;;2.58;;
75898;SDS011;64576;50.460;4.866;2023-05-10T11:18:20;7.45;;;2.42;;
75898;SDS011;64576;50.460;4.866;2023-05-10T11:21:08;4.88;;;2.38;;
75898;SDS011;64576;50.460;4.866;2023-05-10T11:23:54;6.38;;;2.70;;
75898;SDS011;64576;50.460;4.866;2023-05-10T11:26:21;5.22;;;2.67;;
75898;SDS011;64576;50.460;4.866;2023-05-10T11:28:51;6.65;;;3.58;;
75898;SDS011;64576;50.460;4.866;2023-05-10T11:31:24;7.88;;;2.83;;
75898;SDS011;64576;50.460;4.866;2023-05-10T11:33:55;6.82;;;2.78;;
75898;SDS011;64576;50.460;4.866;2023-05-10T11:36:23;5.68;;;2.50;;
75898;SDS011;64576;50.460;4.866;2023-05-10T11:38:51;5.43;;;2.45;;
75898;SDS011;64576;50.460;4.866;2023-05-10T11:41:17;6.25;;;2.65;;
75898;SDS011;64576;50.460;4.866;2023-05-10T11:43:44;8.43;;;2.70;;
75898;SDS011;64576;50.460;4.866;2023-05-10T11:46:11;6.78;;;2.95;;
75898;SDS011;64576;50.460;4.866;2023-05-10T11:48:38;7.18;;;2.95;;
75898;SDS011;64576;50.460;4.866;2023-05-10T11:51:04;6.55;;;2.63;;
75898;SDS011;64576;50.460;4.866;2023-05-10T11:53:31;7.20;;;2.65;;
75898;SDS011;64576;50.460;4.866;2023-05-10T11:56:06;5.60;;;2.92;;
75898;SDS011;64576;50.460;4.866;2023-05-10T11:58:33;6.93;;;2.97;;
75898;SDS011;64576;50.460;4.866;2023-05-10T12:00:59;7.88;;;2.65;;
75898;SDS011;64576;50.460;4.866;2023-05-10T12:03:25;5.97;;;2.65;;
75898;SDS011;64576;50.460;4.866;2023-05-10T12:05:52;6.35;;;2.83;;
75898;SDS011;64576;50.460;4.866;2023-05-10T12:08:22;8.50;;;3.00;;
75898;SDS011;64576;50.460;4.866;2023-05-10T12:10:49;10.40;;;2.80;;
75898;SDS011;64576;50.460;4.866;2023-05-10T12:13:15;8.45;;;3.08;;
75898;SDS011;64576;50.460;4.866;2023-05-10T12:15:41;6.82;;;2.92;;
75898;SDS011;64576;50.460;4.866;2023-05-10T12:18:08;10.02;;;4.28;;
75898;SDS011;64576;50.460;4.866;2023-05-10T12:20:35;5.43;;;3.03;;
75898;SDS011;64576;50.460;4.866;2023-05-10T12:23:01;5.43;;;3.05;;
75898;SDS011;64576;50.460;4.866;2023-05-10T12:25:32;7.25;;;3.55;;
75898;SDS011;64576;50.460;4.866;2023-05-10T12:28:00;8.82;;;3.13;;
75898;SDS011;64576;50.460;4.866;2023-05-10T12:30:29;5.93;;;2.75;;
75898;SDS011;64576;50.460;4.866;2023-05-10T12:32:59;6.13;;;2.58;;
75898;SDS011;64576;50.460;4.866;2023-05-10T12:35:29;9.32;;;3.20;;
75898;SDS011;64576;50.460;4.866;2023-05-10T12:37:55;7.22;;;3.30;;
75898;SDS011;64576;50.460;4.866;2023-05-10T12:40:20;5.68;;;2.63;;
75898;SDS011;64576;50.460;4.866;2023-05-10T12:42:46;5.45;;;2.40;;
75898;SDS011;64576;50.460;4.866;2023-05-10T12:45:30;6.07;;;3.00;;
75898;SDS011;64576;50.460;4.866;2023-05-10T12:47:56;5.45;;;2.85;;
75898;SDS011;64576;50.460;4.866;2023-05-10T12:50:21;4.82;;;2.67;;
75898;SDS011;64576;50.460;4.866;2023-05-10T12:52:47;6.28;;;3.03;;
75898;SDS011;64576;50.460;4.866;2023-05-10T12:55:12;6.07;;;2.92;;
75898;SDS011;64576;50.460;4.866;2023-05-10T12:57:37;4.00;;;2.20;;
75898;SDS011;64576;50.460;4.866;2023-05-10T13:00:03;7.15;;;2.40;;
75898;SDS011;64576;50.460;4.866;2023-05-10T13:02:30;4.50;;;1.70;;
75898;SDS011;64576;50.460;4.866;2023-05-10T13:04:55;6.05;;;2.15;;
75898;SDS011;64576;50.460;4.866;2023-05-10T13:07:21;6.38;;;2.25;;
75898;SDS011;64576;50.460;4.866;2023-05-10T13:09:46;4.97;;;2.60;;
75898;SDS011;64576;50.460;4.866;2023-05-10T13:12:12;4.90;;;2.03;;
75898;SDS011;64576;50.460;4.866;2023-05-10T13:14:37;8.73;;;2.78;;
75898;SDS011;64576;50.460;4.866;2023-05-10T13:17:02;10.07;;;4.30;;
75898;SDS011;64576;50.460;4.866;2023-05-10T13:19:28;5.60;;;2.53;;
75898;SDS011;64576;50.460;4.866;2023-05-10T13:21:53;4.72;;;2.15;;
75898;SDS011;64576;50.460;4.866;2023-05-10T13:24:18;5.45;;;2.22;;
75898;SDS011;64576;50.460;4.866;2023-05-10T13:26:44;5.50;;;2.45;;
75898;SDS011;64576;50.460;4.866;2023-05-10T13:29:09;7.38;;;2.38;;
75898;SDS011;64576;50.460;4.866;2023-05-10T13:31:35;5.93;;;1.98;;
75898;SDS011;64576;50.460;4.866;2023-05-10T13:34:01;4.82;;;2.05;;
75898;SDS011;64576;50.460;4.866;2023-05-10T13:36:27;4.55;;;1.80;;
75898;SDS011;64576;50.460;4.866;2023-05-10T13:38:52;5.07;;;1.88;;
75898;SDS011;64576;50.460;4.866;2023-05-10T13:41:18;5.25;;;1.80;;
75898;SDS011;64576;50.460;4.866;2023-05-10T13:43:43;5.60;;;2.08;;
75898;SDS011;64576;50.460;4.866;2023-05-10T13:46:09;4.40;;;2.13;;
75898;SDS011;64576;50.460;4.866;2023-05-10T13:48:34;4.75;;;1.50;;
75898;SDS011;64576;50.460;4.866;2023-05-10T13:51:01;6.97;;;1.90;;
75898;SDS011;64576;50.460;4.866;2023-05-10T13:53:27;5.32;;;2.40;;
75898;SDS011;64576;50.460;4.866;2023-05-10T13:55:52;2.90;;;1.30;;
75898;SDS011;64576;50.460;4.866;2023-05-10T13:58:17;4.97;;;2.10;;
75898;SDS011;64576;50.460;4.866;2023-05-10T14:00:43;6.43;;;2.00;;
75898;SDS011;64576;50.460;4.866;2023-05-10T14:03:08;7.97;;;2.40;;
75898;SDS011;64576;50.460;4.866;2023-05-10T14:05:35;5.38;;;1.90;;
75898;SDS011;64576;50.460;4.866;2023-05-10T14:08:01;4.05;;;1.67;;
75898;SDS011;64576;50.460;4.866;2023-05-10T14:10:26;4.70;;;1.90;;
75898;SDS011;64576;50.460;4.866;2023-05-10T14:12:52;3.60;;;1.45;;
75898;SDS011;64576;50.460;4.866;2023-05-10T14:15:17;5.28;;;1.50;;
75898;SDS011;64576;50.460;4.866;2023-05-10T14:17:43;7.43;;;1.92;;
75898;SDS011;64576;50.460;4.866;2023-05-10T14:20:08;2.97;;;1.52;;
75898;SDS011;64576;50.460;4.866;2023-05-10T14:22:34;3.67;;;1.55;;
75898;SDS011;64576;50.460;4.866;2023-05-10T14:25:00;2.75;;;1.40;;
75898;SDS011;64576;50.460;4.866;2023-05-10T14:27:26;4.05;;;2.17;;
75898;SDS011;64576;50.460;4.866;2023-05-10T14:29:51;2.63;;;1.27;;
75898;SDS011;64576;50.460;4.866;2023-05-10T14:32:18;3.42;;;1.70;;
75898;SDS011;64576;50.460;4.866;2023-05-10T14:34:43;4.43;;;1.90;;
75898;SDS011;64576;50.460;4.866;2023-05-10T14:37:09;4.18;;;1.80;;
75898;SDS011;64576;50.460;4.866;2023-05-10T14:39:36;7.03;;;1.70;;
75898;SDS011;64576;50.460;4.866;2023-05-10T14:42:01;5.05;;;2.28;;
75898;SDS011;64576;50.460;4.866;2023-05-10T14:44:27;2.92;;;1.40;;
75898;SDS011;64576;50.460;4.866;2023-05-10T14:46:53;3.75;;;1.60;;
75898;SDS011;64576;50.460;4.866;2023-05-10T14:49:18;3.20;;;1.48;;
75898;SDS011;64576;50.460;4.866;2023-05-10T14:51:44;3.88;;;1.70;;
75898;SDS011;64576;50.460;4.866;2023-05-10T14:54:10;3.10;;;1.60;;
75898;SDS011;64576;50.460;4.866;2023-05-10T14:56:35;4.38;;;1.73;;
75898;SDS011;64576;50.460;4.866;2023-05-10T14:59:02;6.47;;;1.83;;
75898;SDS011;64576;50.460;4.866;2023-05-10T15:01:28;5.53;;;1.80;;
75898;SDS011;64576;50.460;4.866;2023-05-10T15:03:54;4.88;;;1.75;;
75898;SDS011;64576;50.460;4.866;2023-05-10T15:06:23;4.05;;;1.80;;
75898;SDS011;64576;50.460;4.866;2023-05-10T15:08:52;6.00;;;1.88;;
75898;SDS011;64576;50.460;4.866;2023-05-10T15:11:17;3.50;;;1.33;;
75898;SDS011;64576;50.460;4.866;2023-05-10T15:13:42;4.63;;;1.83;;
75898;SDS011;64576;50.460;4.866;2023-05-10T15:16:08;4.88;;;1.88;;
75898;SDS011;64576;50.460;4.866;2023-05-10T15:18:33;4.43;;;1.75;;